sensor_id;sensor_type;location;lat;lon;timestamp;P1;durP1;ratioP1;P2;durP2;ratioP2
77888;SDS011;67082;41.704;44.768;2023-05-18T00:00:54;6.35;;;3.17;;
77888;SDS011;67082;41.704;44.768;2023-05-18T00:03:22;6.78;;;3.03;;
77888;SDS011;67082;41.704;44.768;2023-05-18T00:05:51;5.95;;;3.05;;
77888;SDS011;67082;41.704;44.768;2023-05-18T00:08:20;6.60;;;3.30;;
77888;SDS011;67082;41.704;44.768;2023-05-18T00:10:48;7.35;;;3.40;;
77888;SDS011;67082;41.704;44.768;2023-05-18T00:13:17;7.32;;;3.05;;
77888;SDS011;67082;41.704;44.768;2023-05-18T00:15:44;7.75;;;3.22;;
77888;SDS011;67082;41.704;44.768;2023-05-18T00:18:14;6.63;;;3.17;;
77888;SDS011;67082;41.704;44.768;2023-05-18T00:20:42;7.72;;;2.90;;
77888;SDS011;67082;41.704;44.768;2023-05-18T00:23:10;10.48;;;3.13;;
77888;SDS011;67082;41.704;44.768;2023-05-18T00:25:43;7.07;;;3.30;;
77888;SDS011;67082;41.704;44.768;2023-05-18T00:28:11;8.20;;;3.50;;
77888;SDS011;67082;41.704;44.768;2023-05-18T00:30:39;7.65;;;3.20;;
77888;SDS011;67082;41.704;44.768;2023-05-18T00:33:08;7.57;;;2.90;;
77888;SDS011;67082;41.704;44.768;2023-05-18T00:35:35;9.05;;;3.28;;
77888;SDS011;67082;41.704;44.768;2023-05-18T00:38:04;6.72;;;3.30;;
77888;SDS011;67082;41.704;44.768;2023-05-18T00:40:32;7.85;;;3.08;;
77888;SDS011;67082;41.704;44.768;2023-05-18T00:43:00;5.85;;;3.00;;
77888;SDS011;67082;41.704;44.768;2023-05-18T00:45:29;9.02;;;2.83;;
77888;SDS011;67082;41.704;44.768;2023-05-18T00:47:58;7.93;;;2.80;;
77888;SDS011;67082;41.704;44.768;2023-05-18T00:50:27;7.63;;;3.05;;
77888;SDS011;67082;41.704;44.768;2023-05-18T00:52:58;7.13;;;2.80;;
77888;SDS011;67082;41.704;44.768;2023-05-18T00:55:45;6.65;;;2.92;;
77888;SDS011;67082;41.704;44.768;2023-05-18T00:58:14;5.68;;;3.00;;
77888;SDS011;67082;41.704;44.768;2023-05-18T01:00:43;8.77;;;3.03;;
77888;SDS011;67082;41.704;44.768;2023-05-18T01:03:12;6.22;;;2.85;;
77888;SDS011;67082;41.704;44.768;2023-05-18T01:05:41;4.82;;;2.67;;
77888;SDS011;67082;41.704;44.768;2023-05-18T01:08:11;6.07;;;2.72;;
77888;SDS011;67082;41.704;44.768;2023-05-18T01:10:42;6.05;;;2.45;;
77888;SDS011;67082;41.704;44.768;2023-05-18T01:13:18;6.95;;;2.90;;
77888;SDS011;67082;41.704;44.768;2023-05-18T01:15:53;5.30;;;2.42;;
77888;SDS011;67082;41.704;44.768;2023-05-18T01:18:28;3.83;;;2.33;;
77888;SDS011;67082;41.704;44.768;2023-05-18T01:21:10;6.03;;;2.63;;
77888;SDS011;67082;41.704;44.768;2023-05-18T01:26:29;4.85;;;2.40;;
77888;SDS011;67082;41.704;44.768;2023-05-18T01:29:08;5.72;;;2.60;;
77888;SDS011;67082;41.704;44.768;2023-05-18T01:31:39;4.68;;;2.83;;
77888;SDS011;67082;41.704;44.768;2023-05-18T01:34:08;5.80;;;2.33;;
77888;SDS011;67082;41.704;44.768;2023-05-18T01:36:36;9.52;;;2.63;;
77888;SDS011;67082;41.704;44.768;2023-05-18T01:39:04;6.13;;;2.53;;
77888;SDS011;67082;41.704;44.768;2023-05-18T01:41:34;4.60;;;2.42;;
77888;SDS011;67082;41.704;44.768;2023-05-18T01:44:14;4.85;;;2.30;;
77888;SDS011;67082;41.704;44.768;2023-05-18T01:49:41;5.78;;;2.40;;
77888;SDS011;67082;41.704;44.768;2023-05-18T01:52:17;4.03;;;2.33;;
77888;SDS011;67082;41.704;44.768;2023-05-18T01:55:07;5.30;;;2.70;;
77888;SDS011;67082;41.704;44.768;2023-05-18T01:57:38;7.50;;;2.60;;
77888;SDS011;67082;41.704;44.768;2023-05-18T02:00:09;5.28;;;2.38;;
77888;SDS011;67082;41.704;44.768;2023-05-18T02:02:46;8.05;;;2.83;;
77888;SDS011;67082;41.704;44.768;2023-05-18T02:05:17;7.15;;;2.78;;
77888;SDS011;67082;41.704;44.768;2023-05-18T02:07:47;5.07;;;2.40;;
77888;SDS011;67082;41.704;44.768;2023-05-18T02:10:15;6.10;;;2.70;;
77888;SDS011;67082;41.704;44.768;2023-05-18T02:12:43;6.00;;;2.90;;
77888;SDS011;67082;41.704;44.768;2023-05-18T02:15:16;4.32;;;2.50;;
77888;SDS011;67082;41.704;44.768;2023-05-18T02:17:44;4.20;;;2.63;;
77888;SDS011;67082;41.704;44.768;2023-05-18T02:20:32;5.35;;;2.42;;
77888;SDS011;67082;41.704;44.768;2023-05-18T02:23:00;4.88;;;2.47;;
77888;SDS011;67082;41.704;44.768;2023-05-18T02:25:30;4.47;;;2.50;;
77888;SDS011;67082;41.704;44.768;2023-05-18T02:27:58;4.65;;;2.70;;
77888;SDS011;67082;41.704;44.768;2023-05-18T02:30:28;3.70;;;2.22;;
77888;SDS011;67082;41.704;44.768;2023-05-18T02:32:59;6.65;;;2.50;;
77888;SDS011;67082;41.704;44.768;2023-05-18T02:35:28;8.55;;;2.78;;
77888;SDS011;67082;41.704;44.768;2023-05-18T02:37:57;5.75;;;2.65;;
77888;SDS011;67082;41.704;44.768;2023-05-18T02:40:26;6.28;;;2.50;;
77888;SDS011;67082;41.704;44.768;2023-05-18T02:42:53;6.35;;;2.55;;
77888;SDS011;67082;41.704;44.768;2023-05-18T02:45:23;5.22;;;2.88;;
77888;SDS011;67082;41.704;44.768;2023-05-18T02:47:51;4.45;;;2.70;;
77888;SDS011;67082;41.704;44.768;2023-05-18T02:50:21;4.97;;;2.40;;
77888;SDS011;67082;41.704;44.768;2023-05-18T02:52:49;7.03;;;2.65;;
77888;SDS011;67082;41.704;44.768;2023-05-18T02:55:17;5.68;;;2.67;;
77888;SDS011;67082;41.704;44.768;2023-05-18T02:57:58;8.93;;;2.78;;
77888;SDS011;67082;41.704;44.768;2023-05-18T03:00:47;6.97;;;3.17;;
77888;SDS011;67082;41.704;44.768;2023-05-18T03:03:20;5.25;;;2.42;;
77888;SDS011;67082;41.704;44.768;2023-05-18T03:05:52;6.05;;;2.70;;
77888;SDS011;67082;41.704;44.768;2023-05-18T03:08:21;6.38;;;2.78;;
77888;SDS011;67082;41.704;44.768;2023-05-18T03:10:50;4.68;;;2.45;;
77888;SDS011;67082;41.704;44.768;2023-05-18T03:13:17;5.35;;;2.65;;
77888;SDS011;67082;41.704;44.768;2023-05-18T03:15:46;6.93;;;2.60;;
77888;SDS011;67082;41.704;44.768;2023-05-18T03:18:15;4.90;;;2.50;;
77888;SDS011;67082;41.704;44.768;2023-05-18T03:20:45;5.30;;;2.35;;
77888;SDS011;67082;41.704;44.768;2023-05-18T03:23:14;4.20;;;2.40;;
77888;SDS011;67082;41.704;44.768;2023-05-18T03:25:43;5.18;;;2.50;;
77888;SDS011;67082;41.704;44.768;2023-05-18T03:28:11;3.80;;;2.40;;
77888;SDS011;67082;41.704;44.768;2023-05-18T03:30:39;7.07;;;2.72;;
77888;SDS011;67082;41.704;44.768;2023-05-18T03:33:07;5.30;;;2.15;;
77888;SDS011;67082;41.704;44.768;2023-05-18T03:35:35;4.00;;;2.40;;
77888;SDS011;67082;41.704;44.768;2023-05-18T03:38:06;4.55;;;2.20;;
77888;SDS011;67082;41.704;44.768;2023-05-18T03:40:37;6.60;;;2.60;;
77888;SDS011;67082;41.704;44.768;2023-05-18T03:43:05;6.38;;;2.55;;
77888;SDS011;67082;41.704;44.768;2023-05-18T03:45:36;5.35;;;2.80;;
77888;SDS011;67082;41.704;44.768;2023-05-18T03:48:06;5.43;;;2.53;;
77888;SDS011;67082;41.704;44.768;2023-05-18T03:50:35;7.53;;;2.35;;
77888;SDS011;67082;41.704;44.768;2023-05-18T03:53:03;3.58;;;2.20;;
77888;SDS011;67082;41.704;44.768;2023-05-18T03:55:32;5.05;;;2.20;;
77888;SDS011;67082;41.704;44.768;2023-05-18T03:58:00;4.32;;;2.05;;
77888;SDS011;67082;41.704;44.768;2023-05-18T04:00:28;8.45;;;2.50;;
77888;SDS011;67082;41.704;44.768;2023-05-18T04:02:56;5.30;;;2.28;;
77888;SDS011;67082;41.704;44.768;2023-05-18T04:05:25;4.53;;;2.45;;
77888;SDS011;67082;41.704;44.768;2023-05-18T04:07:56;5.38;;;2.40;;
77888;SDS011;67082;41.704;44.768;2023-05-18T04:10:24;4.80;;;2.38;;
77888;SDS011;67082;41.704;44.768;2023-05-18T04:12:53;4.55;;;2.53;;
77888;SDS011;67082;41.704;44.768;2023-05-18T04:15:21;5.88;;;2.50;;
77888;SDS011;67082;41.704;44.768;2023-05-18T04:17:49;6.85;;;2.65;;
77888;SDS011;67082;41.704;44.768;2023-05-18T04:20:21;4.38;;;2.20;;
77888;SDS011;67082;41.704;44.768;2023-05-18T04:22:51;5.75;;;2.30;;
77888;SDS011;67082;41.704;44.768;2023-05-18T04:25:19;6.38;;;2.25;;
77888;SDS011;67082;41.704;44.768;2023-05-18T04:27:47;4.45;;;2.38;;
77888;SDS011;67082;41.704;44.768;2023-05-18T04:30:19;4.63;;;2.42;;
77888;SDS011;67082;41.704;44.768;2023-05-18T04:32:50;4.72;;;2.28;;
77888;SDS011;67082;41.704;44.768;2023-05-18T04:35:19;6.30;;;2.58;;
77888;SDS011;67082;41.704;44.768;2023-05-18T04:37:47;7.32;;;2.38;;
77888;SDS011;67082;41.704;44.768;2023-05-18T04:40:17;4.07;;;2.20;;
77888;SDS011;67082;41.704;44.768;2023-05-18T04:42:49;4.28;;;2.30;;
77888;SDS011;67082;41.704;44.768;2023-05-18T04:45:21;3.80;;;2.20;;
77888;SDS011;67082;41.704;44.768;2023-05-18T04:47:54;7.53;;;3.70;;
77888;SDS011;67082;41.704;44.768;2023-05-18T04:50:25;4.25;;;2.00;;
77888;SDS011;67082;41.704;44.768;2023-05-18T04:52:55;7.13;;;2.13;;
77888;SDS011;67082;41.704;44.768;2023-05-18T04:55:29;4.38;;;2.38;;
77888;SDS011;67082;41.704;44.768;2023-05-18T04:58:06;3.17;;;1.80;;
77888;SDS011;67082;41.704;44.768;2023-05-18T05:00:37;8.23;;;2.20;;
77888;SDS011;67082;41.704;44.768;2023-05-18T05:03:05;5.55;;;2.28;;
77888;SDS011;67082;41.704;44.768;2023-05-18T05:05:34;3.65;;;1.90;;
77888;SDS011;67082;41.704;44.768;2023-05-18T05:08:03;4.53;;;1.95;;
77888;SDS011;67082;41.704;44.768;2023-05-18T05:10:34;3.95;;;2.05;;
77888;SDS011;67082;41.704;44.768;2023-05-18T05:13:02;4.18;;;1.98;;
77888;SDS011;67082;41.704;44.768;2023-05-18T05:15:31;3.90;;;1.80;;
77888;SDS011;67082;41.704;44.768;2023-05-18T05:18:00;4.50;;;1.92;;
77888;SDS011;67082;41.704;44.768;2023-05-18T05:20:29;3.67;;;2.00;;
77888;SDS011;67082;41.704;44.768;2023-05-18T05:22:58;4.28;;;1.80;;
77888;SDS011;67082;41.704;44.768;2023-05-18T05:25:27;4.22;;;2.00;;
77888;SDS011;67082;41.704;44.768;2023-05-18T05:27:58;4.47;;;1.90;;
77888;SDS011;67082;41.704;44.768;2023-05-18T05:30:27;5.10;;;2.25;;
77888;SDS011;67082;41.704;44.768;2023-05-18T05:32:57;7.40;;;2.25;;
77888;SDS011;67082;41.704;44.768;2023-05-18T05:35:27;4.63;;;2.10;;
77888;SDS011;67082;41.704;44.768;2023-05-18T05:37:58;5.68;;;2.03;;
77888;SDS011;67082;41.704;44.768;2023-05-18T05:40:27;4.88;;;1.90;;
77888;SDS011;67082;41.704;44.768;2023-05-18T05:42:56;5.57;;;2.15;;
77888;SDS011;67082;41.704;44.768;2023-05-18T05:45:26;3.40;;;2.00;;
77888;SDS011;67082;41.704;44.768;2023-05-18T05:47:58;4.88;;;2.10;;
77888;SDS011;67082;41.704;44.768;2023-05-18T05:50:26;5.38;;;1.90;;
77888;SDS011;67082;41.704;44.768;2023-05-18T05:52:58;4.65;;;1.98;;
77888;SDS011;67082;41.704;44.768;2023-05-18T05:55:28;4.82;;;2.22;;
77888;SDS011;67082;41.704;44.768;2023-05-18T05:57:56;4.60;;;2.00;;
77888;SDS011;67082;41.704;44.768;2023-05-18T06:00:25;6.47;;;2.35;;
77888;SDS011;67082;41.704;44.768;2023-05-18T06:03:00;5.03;;;2.53;;
77888;SDS011;67082;41.704;44.768;2023-05-18T06:05:33;5.90;;;2.83;;
77888;SDS011;67082;41.704;44.768;2023-05-18T06:08:02;4.97;;;2.90;;
77888;SDS011;67082;41.704;44.768;2023-05-18T06:10:31;6.85;;;2.90;;
77888;SDS011;67082;41.704;44.768;2023-05-18T06:12:59;5.43;;;3.00;;
77888;SDS011;67082;41.704;44.768;2023-05-18T06:15:34;5.40;;;3.30;;
77888;SDS011;67082;41.704;44.768;2023-05-18T06:18:03;9.10;;;3.50;;
77888;SDS011;67082;41.704;44.768;2023-05-18T06:20:32;5.80;;;2.95;;
77888;SDS011;67082;41.704;44.768;2023-05-18T06:23:02;6.18;;;2.80;;
77888;SDS011;67082;41.704;44.768;2023-05-18T06:25:51;5.60;;;2.75;;
77888;SDS011;67082;41.704;44.768;2023-05-18T06:29:00;6.18;;;2.65;;
77888;SDS011;67082;41.704;44.768;2023-05-18T06:31:32;7.47;;;2.70;;
77888;SDS011;67082;41.704;44.768;2023-05-18T06:34:16;7.22;;;2.42;;
77888;SDS011;67082;41.704;44.768;2023-05-18T06:36:44;6.38;;;2.65;;
77888;SDS011;67082;41.704;44.768;2023-05-18T06:39:13;4.68;;;2.53;;
77888;SDS011;67082;41.704;44.768;2023-05-18T06:41:43;5.13;;;2.13;;
77888;SDS011;67082;41.704;44.768;2023-05-18T06:44:20;4.82;;;2.13;;
77888;SDS011;67082;41.704;44.768;2023-05-18T06:47:10;5.03;;;2.10;;
77888;SDS011;67082;41.704;44.768;2023-05-18T06:49:38;5.93;;;2.28;;
77888;SDS011;67082;41.704;44.768;2023-05-18T06:52:07;5.18;;;2.15;;
77888;SDS011;67082;41.704;44.768;2023-05-18T06:54:39;3.92;;;2.00;;
77888;SDS011;67082;41.704;44.768;2023-05-18T06:57:08;3.90;;;2.17;;
77888;SDS011;67082;41.704;44.768;2023-05-18T06:59:36;9.15;;;2.40;;
77888;SDS011;67082;41.704;44.768;2023-05-18T07:02:07;5.32;;;2.08;;
77888;SDS011;67082;41.704;44.768;2023-05-18T07:04:36;6.88;;;2.30;;
77888;SDS011;67082;41.704;44.768;2023-05-18T07:07:13;5.57;;;2.80;;
77888;SDS011;67082;41.704;44.768;2023-05-18T07:09:50;4.93;;;2.42;;
77888;SDS011;67082;41.704;44.768;2023-05-18T07:12:22;6.57;;;2.50;;
77888;SDS011;67082;41.704;44.768;2023-05-18T07:14:50;4.07;;;2.30;;
77888;SDS011;67082;41.704;44.768;2023-05-18T07:17:18;4.40;;;2.17;;
77888;SDS011;67082;41.704;44.768;2023-05-18T07:19:46;6.65;;;2.28;;
77888;SDS011;67082;41.704;44.768;2023-05-18T07:22:15;6.88;;;2.80;;
77888;SDS011;67082;41.704;44.768;2023-05-18T07:24:44;5.97;;;2.20;;
77888;SDS011;67082;41.704;44.768;2023-05-18T07:27:13;6.60;;;2.25;;
77888;SDS011;67082;41.704;44.768;2023-05-18T07:29:45;5.28;;;2.40;;
77888;SDS011;67082;41.704;44.768;2023-05-18T07:32:13;5.57;;;2.17;;
77888;SDS011;67082;41.704;44.768;2023-05-18T07:34:41;3.75;;;2.00;;
77888;SDS011;67082;41.704;44.768;2023-05-18T07:37:10;3.53;;;2.20;;
77888;SDS011;67082;41.704;44.768;2023-05-18T07:39:38;5.65;;;1.98;;
77888;SDS011;67082;41.704;44.768;2023-05-18T07:42:07;3.92;;;2.10;;
77888;SDS011;67082;41.704;44.768;2023-05-18T07:44:35;5.22;;;2.50;;
77888;SDS011;67082;41.704;44.768;2023-05-18T07:47:03;5.13;;;2.63;;
77888;SDS011;67082;41.704;44.768;2023-05-18T07:49:32;5.40;;;2.70;;
77888;SDS011;67082;41.704;44.768;2023-05-18T07:52:01;7.80;;;2.95;;
77888;SDS011;67082;41.704;44.768;2023-05-18T07:54:29;6.13;;;3.05;;
77888;SDS011;67082;41.704;44.768;2023-05-18T07:56:57;5.85;;;2.72;;
77888;SDS011;67082;41.704;44.768;2023-05-18T07:59:27;5.55;;;2.67;;
77888;SDS011;67082;41.704;44.768;2023-05-18T08:01:56;5.50;;;2.72;;
77888;SDS011;67082;41.704;44.768;2023-05-18T08:04:27;6.50;;;2.90;;
77888;SDS011;67082;41.704;44.768;2023-05-18T08:06:58;4.97;;;3.22;;
77888;SDS011;67082;41.704;44.768;2023-05-18T08:09:27;6.88;;;3.20;;
77888;SDS011;67082;41.704;44.768;2023-05-18T08:11:57;5.18;;;3.03;;
77888;SDS011;67082;41.704;44.768;2023-05-18T08:14:25;5.80;;;2.75;;
77888;SDS011;67082;41.704;44.768;2023-05-18T08:16:53;6.57;;;3.00;;
77888;SDS011;67082;41.704;44.768;2023-05-18T08:19:22;5.75;;;2.72;;
77888;SDS011;67082;41.704;44.768;2023-05-18T08:21:52;8.38;;;3.70;;
77888;SDS011;67082;41.704;44.768;2023-05-18T08:24:20;5.13;;;2.97;;
77888;SDS011;67082;41.704;44.768;2023-05-18T08:26:48;7.63;;;2.90;;
77888;SDS011;67082;41.704;44.768;2023-05-18T08:29:19;8.10;;;3.22;;
77888;SDS011;67082;41.704;44.768;2023-05-18T08:31:48;11.60;;;3.67;;
77888;SDS011;67082;41.704;44.768;2023-05-18T08:34:16;7.22;;;3.05;;
77888;SDS011;67082;41.704;44.768;2023-05-18T08:36:46;6.78;;;3.20;;
77888;SDS011;67082;41.704;44.768;2023-05-18T08:39:14;6.30;;;3.00;;
77888;SDS011;67082;41.704;44.768;2023-05-18T08:41:48;11.63;;;3.38;;
77888;SDS011;67082;41.704;44.768;2023-05-18T08:44:44;6.20;;;3.20;;
77888;SDS011;67082;41.704;44.768;2023-05-18T08:47:17;5.78;;;3.22;;
77888;SDS011;67082;41.704;44.768;2023-05-18T08:49:54;8.43;;;3.10;;
77888;SDS011;67082;41.704;44.768;2023-05-18T08:52:24;5.35;;;3.22;;
77888;SDS011;67082;41.704;44.768;2023-05-18T08:54:54;4.60;;;2.92;;
77888;SDS011;67082;41.704;44.768;2023-05-18T08:57:27;4.88;;;2.90;;
77888;SDS011;67082;41.704;44.768;2023-05-18T08:59:58;6.40;;;3.28;;
77888;SDS011;67082;41.704;44.768;2023-05-18T09:02:32;5.70;;;3.25;;
77888;SDS011;67082;41.704;44.768;2023-05-18T09:05:00;5.55;;;3.22;;
77888;SDS011;67082;41.704;44.768;2023-05-18T09:07:32;6.18;;;2.80;;
77888;SDS011;67082;41.704;44.768;2023-05-18T09:10:02;9.60;;;3.40;;
77888;SDS011;67082;41.704;44.768;2023-05-18T09:12:32;6.95;;;2.95;;
77888;SDS011;67082;41.704;44.768;2023-05-18T09:15:02;8.50;;;3.05;;
77888;SDS011;67082;41.704;44.768;2023-05-18T09:17:36;8.35;;;3.45;;
77888;SDS011;67082;41.704;44.768;2023-05-18T09:20:05;7.05;;;3.80;;
77888;SDS011;67082;41.704;44.768;2023-05-18T09:22:38;7.38;;;3.33;;
77888;SDS011;67082;41.704;44.768;2023-05-18T09:25:08;6.43;;;3.00;;
77888;SDS011;67082;41.704;44.768;2023-05-18T09:27:38;7.15;;;3.00;;
77888;SDS011;67082;41.704;44.768;2023-05-18T09:30:09;8.07;;;3.58;;
77888;SDS011;67082;41.704;44.768;2023-05-18T09:32:39;5.47;;;3.38;;
77888;SDS011;67082;41.704;44.768;2023-05-18T09:35:08;8.80;;;3.88;;
77888;SDS011;67082;41.704;44.768;2023-05-18T09:37:39;8.70;;;3.95;;
77888;SDS011;67082;41.704;44.768;2023-05-18T09:40:09;7.25;;;3.10;;
77888;SDS011;67082;41.704;44.768;2023-05-18T09:42:40;4.82;;;3.08;;
77888;SDS011;67082;41.704;44.768;2023-05-18T09:45:18;6.38;;;3.20;;
77888;SDS011;67082;41.704;44.768;2023-05-18T09:47:51;5.45;;;2.95;;
77888;SDS011;67082;41.704;44.768;2023-05-18T09:50:21;6.10;;;2.92;;
77888;SDS011;67082;41.704;44.768;2023-05-18T09:52:53;8.07;;;2.90;;
77888;SDS011;67082;41.704;44.768;2023-05-18T09:55:22;5.60;;;2.97;;
77888;SDS011;67082;41.704;44.768;2023-05-18T09:57:51;5.50;;;2.80;;
77888;SDS011;67082;41.704;44.768;2023-05-18T10:00:20;5.63;;;2.83;;
77888;SDS011;67082;41.704;44.768;2023-05-18T10:02:52;5.00;;;3.00;;
77888;SDS011;67082;41.704;44.768;2023-05-18T10:05:23;6.20;;;3.25;;
77888;SDS011;67082;41.704;44.768;2023-05-18T10:08:03;6.32;;;2.90;;
77888;SDS011;67082;41.704;44.768;2023-05-18T10:10:37;6.63;;;2.88;;
77888;SDS011;67082;41.704;44.768;2023-05-18T10:13:11;7.07;;;3.55;;
77888;SDS011;67082;41.704;44.768;2023-05-18T10:15:46;8.60;;;3.20;;
77888;SDS011;67082;41.704;44.768;2023-05-18T10:18:22;5.63;;;2.60;;
77888;SDS011;67082;41.704;44.768;2023-05-18T10:21:15;4.80;;;2.70;;
77888;SDS011;67082;41.704;44.768;2023-05-18T10:23:45;5.43;;;3.03;;
77888;SDS011;67082;41.704;44.768;2023-05-18T10:26:18;5.70;;;2.58;;
77888;SDS011;67082;41.704;44.768;2023-05-18T10:28:51;3.53;;;2.42;;
77888;SDS011;67082;41.704;44.768;2023-05-18T10:31:29;4.55;;;2.85;;
77888;SDS011;67082;41.704;44.768;2023-05-18T10:34:01;4.00;;;2.72;;
77888;SDS011;67082;41.704;44.768;2023-05-18T10:36:35;7.78;;;2.92;;
77888;SDS011;67082;41.704;44.768;2023-05-18T10:39:09;5.80;;;2.85;;
77888;SDS011;67082;41.704;44.768;2023-05-18T10:41:41;5.53;;;3.10;;
77888;SDS011;67082;41.704;44.768;2023-05-18T10:44:16;6.28;;;3.10;;
77888;SDS011;67082;41.704;44.768;2023-05-18T10:46:45;6.72;;;3.08;;
77888;SDS011;67082;41.704;44.768;2023-05-18T10:49:20;8.05;;;3.42;;
77888;SDS011;67082;41.704;44.768;2023-05-18T10:51:55;4.63;;;3.22;;
77888;SDS011;67082;41.704;44.768;2023-05-18T10:57:03;8.20;;;3.80;;
77888;SDS011;67082;41.704;44.768;2023-05-18T10:59:32;6.07;;;3.50;;
77888;SDS011;67082;41.704;44.768;2023-05-18T11:02:02;7.43;;;3.42;;
77888;SDS011;67082;41.704;44.768;2023-05-18T11:04:34;9.70;;;3.00;;
77888;SDS011;67082;41.704;44.768;2023-05-18T11:07:11;6.47;;;2.88;;
77888;SDS011;67082;41.704;44.768;2023-05-18T11:09:44;8.27;;;3.42;;
77888;SDS011;67082;41.704;44.768;2023-05-18T11:12:16;7.57;;;3.22;;
77888;SDS011;67082;41.704;44.768;2023-05-18T11:14:51;11.05;;;3.20;;
77888;SDS011;67082;41.704;44.768;2023-05-18T11:17:22;5.88;;;2.97;;
77888;SDS011;67082;41.704;44.768;2023-05-18T11:28:06;7.40;;;3.28;;
77888;SDS011;67082;41.704;44.768;2023-05-18T11:33:08;6.20;;;3.10;;
77888;SDS011;67082;41.704;44.768;2023-05-18T11:44:16;5.32;;;3.40;;
77888;SDS011;67082;41.704;44.768;2023-05-18T11:46:52;6.22;;;2.80;;
77888;SDS011;67082;41.704;44.768;2023-05-18T11:49:32;9.60;;;3.00;;
77888;SDS011;67082;41.704;44.768;2023-05-18T11:52:17;7.85;;;2.88;;
77888;SDS011;67082;41.704;44.768;2023-05-18T11:54:51;8.48;;;3.10;;
77888;SDS011;67082;41.704;44.768;2023-05-18T11:57:37;6.57;;;3.40;;
77888;SDS011;67082;41.704;44.768;2023-05-18T12:00:07;4.30;;;2.78;;
77888;SDS011;67082;41.704;44.768;2023-05-18T12:02:44;8.48;;;2.95;;
77888;SDS011;67082;41.704;44.768;2023-05-18T12:05:13;8.27;;;3.80;;
77888;SDS011;67082;41.704;44.768;2023-05-18T12:07:42;7.80;;;3.60;;
77888;SDS011;67082;41.704;44.768;2023-05-18T12:10:11;10.05;;;3.60;;
77888;SDS011;67082;41.704;44.768;2023-05-18T12:12:48;6.32;;;3.30;;
77888;SDS011;67082;41.704;44.768;2023-05-18T12:15:22;15.10;;;3.42;;
77888;SDS011;67082;41.704;44.768;2023-05-18T12:17:51;5.65;;;3.03;;
77888;SDS011;67082;41.704;44.768;2023-05-18T12:20:20;5.70;;;2.88;;
77888;SDS011;67082;41.704;44.768;2023-05-18T12:22:55;7.68;;;3.30;;
77888;SDS011;67082;41.704;44.768;2023-05-18T12:25:24;7.80;;;3.28;;
77888;SDS011;67082;41.704;44.768;2023-05-18T12:27:54;7.60;;;3.00;;
77888;SDS011;67082;41.704;44.768;2023-05-18T12:30:24;5.60;;;3.30;;
77888;SDS011;67082;41.704;44.768;2023-05-18T12:33:02;5.80;;;3.00;;
77888;SDS011;67082;41.704;44.768;2023-05-18T12:35:30;6.53;;;3.45;;
77888;SDS011;67082;41.704;44.768;2023-05-18T12:38:00;11.73;;;4.15;;
77888;SDS011;67082;41.704;44.768;2023-05-18T12:40:35;8.80;;;3.80;;
77888;SDS011;67082;41.704;44.768;2023-05-18T12:43:11;7.75;;;3.58;;
77888;SDS011;67082;41.704;44.768;2023-05-18T12:45:39;8.00;;;3.78;;
77888;SDS011;67082;41.704;44.768;2023-05-18T12:48:11;10.23;;;3.65;;
77888;SDS011;67082;41.704;44.768;2023-05-18T12:50:46;7.05;;;3.55;;
77888;SDS011;67082;41.704;44.768;2023-05-18T12:53:17;8.45;;;3.22;;
77888;SDS011;67082;41.704;44.768;2023-05-18T12:55:54;6.10;;;3.60;;
77888;SDS011;67082;41.704;44.768;2023-05-18T12:58:25;7.32;;;4.25;;
77888;SDS011;67082;41.704;44.768;2023-05-18T13:00:54;5.40;;;3.60;;
77888;SDS011;67082;41.704;44.768;2023-05-18T13:03:22;6.20;;;3.85;;
77888;SDS011;67082;41.704;44.768;2023-05-18T13:06:03;12.15;;;4.85;;
77888;SDS011;67082;41.704;44.768;2023-05-18T13:08:33;7.50;;;3.65;;
77888;SDS011;67082;41.704;44.768;2023-05-18T13:11:05;5.88;;;3.45;;
77888;SDS011;67082;41.704;44.768;2023-05-18T13:14:00;5.93;;;3.60;;
77888;SDS011;67082;41.704;44.768;2023-05-18T13:16:29;5.82;;;3.33;;
77888;SDS011;67082;41.704;44.768;2023-05-18T13:19:00;7.32;;;3.33;;
77888;SDS011;67082;41.704;44.768;2023-05-18T13:21:32;7.85;;;3.83;;
77888;SDS011;67082;41.704;44.768;2023-05-18T13:24:02;4.40;;;3.00;;
77888;SDS011;67082;41.704;44.768;2023-05-18T13:26:32;5.60;;;3.33;;
77888;SDS011;67082;41.704;44.768;2023-05-18T13:29:00;6.50;;;3.20;;
77888;SDS011;67082;41.704;44.768;2023-05-18T13:31:28;6.45;;;3.22;;
77888;SDS011;67082;41.704;44.768;2023-05-18T13:33:57;4.32;;;2.90;;
77888;SDS011;67082;41.704;44.768;2023-05-18T13:36:28;6.88;;;3.33;;
77888;SDS011;67082;41.704;44.768;2023-05-18T13:38:57;7.30;;;3.78;;
77888;SDS011;67082;41.704;44.768;2023-05-18T13:41:25;7.68;;;3.30;;
77888;SDS011;67082;41.704;44.768;2023-05-18T13:43:53;5.85;;;3.58;;
77888;SDS011;67082;41.704;44.768;2023-05-18T13:46:21;7.35;;;4.30;;
77888;SDS011;67082;41.704;44.768;2023-05-18T13:48:50;11.52;;;5.75;;
77888;SDS011;67082;41.704;44.768;2023-05-18T13:51:18;12.68;;;6.13;;
77888;SDS011;67082;41.704;44.768;2023-05-18T13:53:46;9.27;;;4.90;;
77888;SDS011;67082;41.704;44.768;2023-05-18T13:56:14;10.95;;;5.10;;
77888;SDS011;67082;41.704;44.768;2023-05-18T13:58:45;7.88;;;4.93;;
77888;SDS011;67082;41.704;44.768;2023-05-18T14:01:13;8.70;;;4.32;;
77888;SDS011;67082;41.704;44.768;2023-05-18T14:03:44;6.82;;;3.70;;
77888;SDS011;67082;41.704;44.768;2023-05-18T14:06:12;7.63;;;3.70;;
77888;SDS011;67082;41.704;44.768;2023-05-18T14:08:40;6.38;;;3.40;;
77888;SDS011;67082;41.704;44.768;2023-05-18T14:11:11;6.25;;;3.25;;
77888;SDS011;67082;41.704;44.768;2023-05-18T14:13:39;7.03;;;2.80;;
77888;SDS011;67082;41.704;44.768;2023-05-18T14:16:07;4.93;;;2.60;;
77888;SDS011;67082;41.704;44.768;2023-05-18T14:18:37;10.82;;;6.18;;
77888;SDS011;67082;41.704;44.768;2023-05-18T14:21:06;5.97;;;3.17;;
77888;SDS011;67082;41.704;44.768;2023-05-18T14:23:35;4.00;;;2.55;;
77888;SDS011;67082;41.704;44.768;2023-05-18T14:26:08;3.65;;;2.60;;
77888;SDS011;67082;41.704;44.768;2023-05-18T14:28:36;4.40;;;2.40;;
77888;SDS011;67082;41.704;44.768;2023-05-18T14:31:04;4.00;;;2.42;;
77888;SDS011;67082;41.704;44.768;2023-05-18T14:33:33;4.88;;;2.60;;
77888;SDS011;67082;41.704;44.768;2023-05-18T14:36:00;6.70;;;2.70;;
77888;SDS011;67082;41.704;44.768;2023-05-18T14:41:18;3.33;;;2.20;;
77888;SDS011;67082;41.704;44.768;2023-05-18T14:43:48;3.63;;;2.40;;
77888;SDS011;67082;41.704;44.768;2023-05-18T14:46:17;5.20;;;2.50;;
77888;SDS011;67082;41.704;44.768;2023-05-18T14:48:45;6.22;;;2.58;;
77888;SDS011;67082;41.704;44.768;2023-05-18T14:51:13;3.83;;;2.50;;
77888;SDS011;67082;41.704;44.768;2023-05-18T14:53:42;3.92;;;2.33;;
77888;SDS011;67082;41.704;44.768;2023-05-18T14:56:10;3.60;;;2.22;;
77888;SDS011;67082;41.704;44.768;2023-05-18T14:58:39;4.75;;;2.42;;
77888;SDS011;67082;41.704;44.768;2023-05-18T15:01:07;5.55;;;2.58;;
77888;SDS011;67082;41.704;44.768;2023-05-18T15:09:55;5.15;;;3.05;;
77888;SDS011;67082;41.704;44.768;2023-05-18T15:12:24;4.32;;;2.72;;
77888;SDS011;67082;41.704;44.768;2023-05-18T15:14:52;7.45;;;3.45;;
77888;SDS011;67082;41.704;44.768;2023-05-18T15:17:20;7.43;;;3.78;;
77888;SDS011;67082;41.704;44.768;2023-05-18T15:19:48;7.32;;;3.92;;
77888;SDS011;67082;41.704;44.768;2023-05-18T15:22:16;11.75;;;4.10;;
77888;SDS011;67082;41.704;44.768;2023-05-18T15:24:44;7.72;;;3.75;;
77888;SDS011;67082;41.704;44.768;2023-05-18T15:27:13;9.65;;;4.10;;
77888;SDS011;67082;41.704;44.768;2023-05-18T15:29:40;11.63;;;4.68;;
77888;SDS011;67082;41.704;44.768;2023-05-18T15:32:08;9.02;;;4.30;;